Gore Springs, Mississippi
Current Conditions -  °F | °C
As of 12:15 PM on Friday 31 Oct 2014 (Local Time) from KGNF Reporting Station
Scattered Clouds Scattered Clouds  
Wind Chill: 64°   Ceiling: Unl
Heat Index: 64°   Visibility: 10mi
Dew Point: 46°   Wind: 15mph
Humidity: 52%   Direction: 340°NNW
Pressure: 30.08"   Gusts: 21mph
Location:  33.75°N, 89.62°W
Report Text: KGNF 311715Z AUTO 34013G18KT 10SM SCT035 18/08 A3008 RMK AO2 TSNO
Loading
Personal Weather Stations






























Interactive Weather Map
Tropical Storm Tracking
New forecast layout! Learn more

10-Day Weather Forecast

Advertisements
Track Severe Weather on mobile